Time;durP1;ratioP1;P1;durP2;ratioP2;P2;SDS_P1;SDS_P2;PMS_P1;PMS_P2;Temp;Humidity;BMP_temperature;BMP_pressure;BME280_temperature;BME280_humidity;BME280_pressure;Samples;Min_cycle;Max_cycle;Signal;HPM_P1;HPM_P2
2023/12/02 00:02:25;;;;;;;32.60;14.50;;;-0.30;99.90;;;;;;5011978;28;20920;-58
2023/12/02 00:04:51;;;;;;;29.90;14.37;;;-0.30;99.90;;;;;;5012118;28;20179;-59
2023/12/02 00:07:17;;;;;;;35.23;13.27;;;-0.40;99.90;;;;;;5013641;28;20215;-59
2023/12/02 00:09:42;;;;;;;56.83;16.23;;;-0.40;99.90;;;;;;5031800;28;20906;-58
2023/12/02 00:12:08;;;;;;;36.97;13.40;;;-0.40;99.90;;;;;;5016786;28;20549;-58
2023/12/02 00:14:33;;;;;;;35.33;14.40;;;-0.40;99.90;;;;;;5010455;28;20210;-58
2023/12/02 00:16:59;;;;;;;36.13;15.47;;;-0.40;99.90;;;;;;5025255;28;20190;-59
2023/12/02 00:19:24;;;;;;;29.77;15.20;;;-0.30;99.90;;;;;;5011926;28;20187;-59
2023/12/02 00:21:51;;;;;;;46.10;15.57;;;-0.40;99.90;;;;;;5013661;28;20690;-59
2023/12/02 00:24:16;;;;;;;32.67;14.10;;;-0.30;99.90;;;;;;5023152;28;20556;-58
2023/12/02 00:26:42;;;;;;;29.20;13.10;;;-0.40;99.90;;;;;;5011570;28;20890;-59
2023/12/02 00:29:07;;;;;;;34.83;14.20;;;-0.40;99.90;;;;;;5015225;28;20190;-59
2023/12/02 00:31:33;;;;;;;28.77;13.87;;;-0.40;99.90;;;;;;5024791;28;20210;-58
2023/12/02 00:33:58;;;;;;;34.93;14.67;;;-0.40;99.90;;;;;;5011835;28;20245;-59
2023/12/02 00:36:24;;;;;;;30.27;13.13;;;-0.40;99.90;;;;;;5011291;28;20191;-59
2023/12/02 00:38:50;;;;;;;37.03;13.77;;;-0.40;99.90;;;;;;5019127;28;20181;-59
2023/12/02 00:41:16;;;;;;;27.07;11.53;;;-0.30;99.90;;;;;;5015101;28;20259;-58
2023/12/02 00:43:41;;;;;;;39.50;15.10;;;-0.40;99.90;;;;;;5012069;28;20679;-59
2023/12/02 00:46:07;;;;;;;33.27;14.13;;;-0.40;99.90;;;;;;5013119;28;20268;-59
2023/12/02 00:48:32;;;;;;;31.37;13.20;;;-0.40;99.90;;;;;;5021084;28;20207;-58
2023/12/02 00:50:58;;;;;;;37.57;15.80;;;-0.40;99.90;;;;;;5011231;28;20448;-56
2023/12/02 00:53:24;;;;;;;24.50;12.10;;;-0.50;99.90;;;;;;5011691;28;20210;-55
2023/12/02 00:55:49;;;;;;;33.03;13.37;;;-0.50;99.90;;;;;;5011570;28;20182;-58
2023/12/02 00:58:15;;;;;;;31.17;14.40;;;-0.50;99.90;;;;;;5011442;28;20189;-58
2023/12/02 01:00:40;;;;;;;36.47;14.03;;;-0.50;99.90;;;;;;5027690;28;20189;-59
2023/12/02 01:03:06;;;;;;;34.30;14.93;;;-0.50;99.90;;;;;;5023702;28;20241;-59
2023/12/02 01:05:31;;;;;;;35.70;15.83;;;-0.50;99.90;;;;;;5020532;28;20828;-58
2023/12/02 01:07:57;;;;;;;30.30;13.80;;;-0.50;99.90;;;;;;5015495;28;20210;-59
2023/12/02 01:10:22;;;;;;;31.53;15.13;;;-0.40;99.90;;;;;;5028365;28;20240;-58
2023/12/02 01:12:48;;;;;;;37.93;15.20;;;-0.50;99.90;;;;;;5014743;28;20191;-58
2023/12/02 01:15:13;;;;;;;32.67;13.43;;;-0.50;99.90;;;;;;5015131;28;20218;-58
2023/12/02 01:17:39;;;;;;;30.27;15.27;;;-0.50;99.90;;;;;;5019865;28;20187;-58
2023/12/02 01:20:05;;;;;;;34.13;12.83;;;-0.50;99.90;;;;;;5028857;28;20558;-58
2023/12/02 01:22:30;;;;;;;29.97;13.77;;;-0.50;99.90;;;;;;5022866;28;20179;-58
2023/12/02 01:24:56;;;;;;;31.47;14.27;;;-0.50;99.90;;;;;;5021849;28;20921;-58
2023/12/02 01:27:21;;;;;;;31.50;12.67;;;-0.50;99.90;;;;;;5034734;28;20182;-58
2023/12/02 01:29:46;;;;;;;35.57;13.70;;;-0.50;99.90;;;;;;5018438;28;20217;-58
2023/12/02 01:32:12;;;;;;;33.97;12.07;;;-0.60;99.90;;;;;;5015162;28;20569;-58
2023/12/02 01:34:37;;;;;;;32.20;13.33;;;-0.60;99.90;;;;;;5028921;28;20179;-58
2023/12/02 01:37:03;;;;;;;26.87;12.47;;;-0.60;99.90;;;;;;5034822;28;20174;-58
2023/12/02 01:39:29;;;;;;;37.57;13.80;;;-0.60;99.90;;;;;;5021428;28;20260;-59
2023/12/02 01:41:54;;;;;;;29.43;11.33;;;-0.60;99.90;;;;;;5013915;28;20205;-58
2023/12/02 01:44:20;;;;;;;23.67;11.80;;;-0.70;99.90;;;;;;5015187;28;20678;-58
2023/12/02 01:46:45;;;;;;;21.97;9.93;;;-0.70;99.90;;;;;;5027814;28;20273;-58
2023/12/02 01:49:11;;;;;;;25.30;12.30;;;-0.80;99.90;;;;;;5028087;28;20253;-58
2023/12/02 01:51:37;;;;;;;20.83;11.17;;;-0.70;99.90;;;;;;5028082;28;20183;-58
2023/12/02 01:54:03;;;;;;;27.17;11.53;;;-0.70;99.90;;;;;;5015181;28;20918;-59
2023/12/02 01:56:28;;;;;;;27.87;11.43;;;-0.70;99.90;;;;;;5020715;28;20666;-58
2023/12/02 01:58:54;;;;;;;25.57;12.00;;;-0.60;99.90;;;;;;5025061;28;20512;-59
2023/12/02 02:01:20;;;;;;;24.83;11.00;;;-0.60;99.90;;;;;;5026615;28;20959;-56
2023/12/02 02:03:49;;;;;;;29.90;11.40;;;-0.60;99.90;;;;;;5013882;28;20187;-55
2023/12/02 02:06:14;;;;;;;20.10;10.53;;;-0.70;99.90;;;;;;5002247;28;20557;-59
2023/12/02 02:08:40;;;;;;;22.50;10.90;;;-0.70;99.90;;;;;;5014526;28;20424;-58
2023/12/02 02:11:05;;;;;;;24.70;11.13;;;-0.70;99.90;;;;;;5013725;28;20176;-58
2023/12/02 02:13:31;;;;;;;18.87;9.63;;;-0.80;99.90;;;;;;5014239;28;20782;-58
2023/12/02 02:15:57;;;;;;;22.13;10.77;;;-0.70;99.90;;;;;;5027586;28;20266;-59
2023/12/02 02:18:22;;;;;;;28.57;12.07;;;-0.70;99.90;;;;;;5018256;28;20190;-58
2023/12/02 02:20:52;;;;;;;25.13;11.03;;;-0.70;99.90;;;;;;5033860;28;20186;-59
2023/12/02 02:23:22;;;;;;;22.93;10.73;;;-0.70;99.90;;;;;;5020650;28;20191;-58
2023/12/02 02:25:51;;;;;;;23.30;10.90;;;-0.70;99.90;;;;;;5027126;28;20796;-59
2023/12/02 02:28:24;;;;;;;23.63;11.30;;;-0.70;99.90;;;;;;5023705;28;20429;-58
2023/12/02 02:30:50;;;;;;;30.10;12.20;;;-0.80;99.90;;;;;;5014092;28;20419;-58
2023/12/02 02:33:16;;;;;;;25.07;11.00;;;-0.80;99.90;;;;;;5014126;28;20442;-58
2023/12/02 02:35:42;;;;;;;26.30;11.10;;;-0.80;99.90;;;;;;5013884;28;20191;-58
2023/12/02 02:38:08;;;;;;;26.00;11.20;;;-0.80;99.90;;;;;;5029232;28;20453;-58
2023/12/02 02:40:34;;;;;;;31.53;12.03;;;-0.90;99.90;;;;;;5024381;28;20433;-58
2023/12/02 02:43:00;;;;;;;21.50;11.00;;;-0.90;99.90;;;;;;5012768;28;20418;-58
2023/12/02 02:45:26;;;;;;;24.80;11.73;;;-0.90;99.90;;;;;;5012893;28;20207;-58
2023/12/02 02:47:52;;;;;;;22.80;10.80;;;-0.90;99.90;;;;;;5015474;28;20286;-59
2023/12/02 02:50:17;;;;;;;21.97;11.47;;;-1.00;99.90;;;;;;5025089;28;20528;-58
2023/12/02 02:52:43;;;;;;;23.03;10.27;;;-1.00;99.90;;;;;;5013589;28;20593;-58
2023/12/02 02:55:08;;;;;;;21.70;10.97;;;-1.00;99.90;;;;;;5022069;28;20511;-58
2023/12/02 02:57:34;;;;;;;28.90;11.93;;;-1.00;99.90;;;;;;5018139;28;20215;-58
2023/12/02 03:00:00;;;;;;;27.00;11.60;;;-1.00;99.90;;;;;;5013111;28;20620;-55
2023/12/02 03:02:25;;;;;;;24.63;10.70;;;-1.00;99.90;;;;;;5012674;28;20523;-55
2023/12/02 03:04:51;;;;;;;22.70;10.53;;;-1.00;99.90;;;;;;5012984;28;20698;-58
2023/12/02 03:07:16;;;;;;;26.23;11.17;;;-1.00;99.90;;;;;;5013159;28;20179;-58
2023/12/02 03:09:42;;;;;;;23.00;11.37;;;-1.00;99.90;;;;;;5013307;28;20273;-58
2023/12/02 03:12:09;;;;;;;22.87;10.87;;;-1.00;99.90;;;;;;5016551;28;20182;-58
2023/12/02 03:14:37;;;;;;;20.27;9.70;;;-1.00;99.90;;;;;;5012951;28;20183;-58
2023/12/02 03:17:03;;;;;;;16.50;8.30;;;-1.10;99.90;;;;;;5012617;28;20891;-58
2023/12/02 03:19:29;;;;;;;18.57;8.53;;;-1.00;99.90;;;;;;5022351;28;20463;-58
2023/12/02 03:21:54;;;;;;;26.33;9.83;;;-1.00;99.90;;;;;;5029747;28;20787;-58
2023/12/02 03:24:20;;;;;;;19.60;9.60;;;-1.10;99.90;;;;;;5013022;28;20210;-59
2023/12/02 03:26:45;;;;;;;26.27;11.00;;;-1.10;99.90;;;;;;5028027;28;20572;-58
2023/12/02 03:29:11;;;;;;;18.07;7.90;;;-1.10;99.90;;;;;;5020200;28;20194;-59
2023/12/02 03:31:36;;;;;;;19.27;9.13;;;-1.10;99.90;;;;;;5012342;28;20191;-56
2023/12/02 03:34:02;;;;;;;20.70;9.13;;;-1.10;99.90;;;;;;5012344;28;20237;-55
2023/12/02 03:36:27;;;;;;;17.40;7.67;;;-1.10;99.90;;;;;;5012256;28;20187;-55
2023/12/02 03:38:53;;;;;;;13.73;7.47;;;-1.10;99.90;;;;;;5012456;28;20245;-55
2023/12/02 03:41:18;;;;;;;14.77;8.80;;;-1.10;99.90;;;;;;5012955;28;20197;-58
2023/12/02 03:43:44;;;;;;;12.07;7.67;;;-1.10;99.90;;;;;;5024087;28;20545;-58
2023/12/02 03:46:09;;;;;;;17.30;8.90;;;-1.10;99.90;;;;;;5012341;28;20782;-58
2023/12/02 03:48:35;;;;;;;16.93;8.50;;;-1.20;99.90;;;;;;5012406;28;20633;-58
2023/12/02 03:51:00;;;;;;;15.57;7.30;;;-1.10;99.90;;;;;;5013419;28;20183;-58
2023/12/02 03:53:30;;;;;;;18.17;8.10;;;-1.10;99.90;;;;;;5024462;28;20542;-59
2023/12/02 03:55:56;;;;;;;18.20;8.50;;;-1.10;99.90;;;;;;5013969;28;20206;-58
2023/12/02 03:58:21;;;;;;;19.33;7.97;;;-1.10;99.90;;;;;;5023850;28;21048;-58
2023/12/02 04:00:47;;;;;;;18.73;9.37;;;-1.10;99.90;;;;;;5025085;28;20212;-59
2023/12/02 04:03:12;;;;;;;14.87;7.43;;;-1.10;99.90;;;;;;5012034;28;20234;-59
2023/12/02 04:05:38;;;;;;;12.73;6.20;;;-1.20;99.90;;;;;;5011650;28;20685;-55
2023/12/02 04:08:04;;;;;;;16.13;7.47;;;-1.10;99.90;;;;;;5011935;28;20183;-56
2023/12/02 04:10:30;;;;;;;18.47;8.63;;;-1.10;99.90;;;;;;5013652;28;20177;-59
2023/12/02 04:12:56;;;;;;;16.07;7.37;;;-1.00;99.90;;;;;;5006352;28;20419;-59
2023/12/02 04:15:21;;;;;;;16.10;7.73;;;-1.00;99.90;;;;;;5006889;28;20172;-59
2023/12/02 04:17:46;;;;;;;17.47;8.63;;;-0.90;99.90;;;;;;5016051;28;20229;-59
2023/12/02 04:20:15;;;;;;;13.77;7.00;;;-1.00;99.90;;;;;;5013143;28;20703;-58
2023/12/02 04:22:41;;;;;;;16.03;6.20;;;-1.00;99.90;;;;;;5024856;28;20194;-58
2023/12/02 04:25:07;;;;;;;16.00;7.23;;;-1.10;99.90;;;;;;5012091;28;20509;-58
2023/12/02 04:27:33;;;;;;;12.40;6.43;;;-1.10;99.90;;;;;;5011591;28;20227;-58
2023/12/02 04:29:58;;;;;;;12.03;5.97;;;-1.20;99.90;;;;;;5025195;28;20898;-55
2023/12/02 04:32:24;;;;;;;11.73;6.10;;;-1.20;99.90;;;;;;5011098;28;20706;-55
2023/12/02 04:34:50;;;;;;;12.07;6.10;;;-1.10;99.90;;;;;;5011226;28;20547;-55
2023/12/02 04:37:15;;;;;;;10.53;5.33;;;-1.10;99.90;;;;;;5011601;28;20183;-55
2023/12/02 04:39:41;;;;;;;14.77;6.43;;;-1.10;99.90;;;;;;5011299;28;20437;-56
2023/12/02 04:42:07;;;;;;;11.00;6.33;;;-1.10;99.90;;;;;;5010428;28;20192;-55
2023/12/02 04:44:33;;;;;;;12.47;5.03;;;-1.10;99.90;;;;;;5011360;28;20253;-55
2023/12/02 04:46:58;;;;;;;11.67;5.27;;;-1.20;99.90;;;;;;5011384;28;20195;-58
2023/12/02 04:49:24;;;;;;;11.20;5.60;;;-1.30;99.90;;;;;;5015050;28;21273;-58
2023/12/02 04:51:49;;;;;;;12.70;5.30;;;-1.30;99.90;;;;;;5019461;28;20190;-59
2023/12/02 04:54:15;;;;;;;10.40;5.60;;;-1.40;99.90;;;;;;5018351;28;20541;-59
2023/12/02 04:56:40;;;;;;;9.37;5.30;;;-1.30;99.90;;;;;;5023596;28;20190;-60
2023/12/02 04:59:06;;;;;;;9.43;5.47;;;-1.30;99.90;;;;;;5012605;28;20179;-59
2023/12/02 05:01:32;;;;;;;10.73;5.43;;;-1.30;99.90;;;;;;5012109;28;20349;-60
2023/12/02 05:03:58;;;;;;;15.00;5.70;;;-1.20;99.90;;;;;;5013174;28;20261;-59
2023/12/02 05:06:23;;;;;;;9.23;4.33;;;-1.20;99.90;;;;;;5014143;28;21013;-56
2023/12/02 05:08:49;;;;;;;9.17;4.40;;;-1.30;99.90;;;;;;5011701;28;20182;-56
2023/12/02 05:11:20;;;;;;;11.40;4.80;;;-1.30;99.90;;;;;;5016694;28;20198;-59
2023/12/02 05:13:46;;;;;;;14.47;5.70;;;-1.30;99.90;;;;;;5013791;28;20314;-59
2023/12/02 05:16:12;;;;;;;14.33;6.47;;;-1.30;99.90;;;;;;5016192;28;20473;-59
2023/12/02 05:18:42;;;;;;;9.23;4.90;;;-1.30;99.90;;;;;;5011496;28;20430;-59
2023/12/02 05:21:09;;;;;;;9.50;4.47;;;-1.30;99.90;;;;;;5011683;28;20424;-56
2023/12/02 05:23:35;;;;;;;12.00;5.73;;;-1.30;99.90;;;;;;5011505;28;20437;-56
2023/12/02 05:26:01;;;;;;;13.20;4.97;;;-1.40;99.90;;;;;;5011666;28;20480;-59
2023/12/02 05:28:27;;;;;;;11.67;5.10;;;-1.50;99.90;;;;;;5013506;28;20417;-59
2023/12/02 05:30:53;;;;;;;11.73;5.53;;;-1.40;99.90;;;;;;5026350;28;20430;-59
2023/12/02 05:33:22;;;;;;;8.90;4.70;;;-1.40;99.90;;;;;;5010275;28;20469;-59
2023/12/02 05:35:48;;;;;;;10.90;4.90;;;-1.40;99.90;;;;;;5011808;28;20179;-59
2023/12/02 05:38:13;;;;;;;12.23;5.60;;;-1.30;99.90;;;;;;5014846;28;20459;-59
2023/12/02 05:40:38;;;;;;;10.10;5.43;;;-1.30;99.90;;;;;;5025160;28;20457;-60
2023/12/02 05:43:04;;;;;;;12.80;5.43;;;-1.40;99.90;;;;;;5012236;28;20198;-59
2023/12/02 05:45:30;;;;;;;15.27;5.97;;;-1.30;99.90;;;;;;5012465;28;20215;-59
2023/12/02 05:47:55;;;;;;;10.27;4.97;;;-1.30;99.90;;;;;;5026113;28;21041;-59
2023/12/02 05:50:21;;;;;;;9.77;4.30;;;-1.30;99.90;;;;;;5015263;28;20179;-56
2023/12/02 05:52:46;;;;;;;6.90;3.80;;;-1.30;99.90;;;;;;5014882;28;20640;-56
2023/12/02 05:55:12;;;;;;;8.00;3.97;;;-1.30;99.90;;;;;;5014288;28;20290;-56
2023/12/02 05:57:37;;;;;;;14.60;5.13;;;-1.40;99.90;;;;;;5014365;28;20289;-56
2023/12/02 06:00:03;;;;;;;12.60;5.93;;;-1.50;99.90;;;;;;5014772;28;20186;-59
2023/12/02 06:02:29;;;;;;;11.17;5.50;;;-1.50;99.90;;;;;;5017154;28;20218;-59
2023/12/02 06:04:55;;;;;;;7.30;4.53;;;-1.40;99.90;;;;;;5024982;28;20897;-59
2023/12/02 06:07:20;;;;;;;8.90;4.90;;;-1.40;99.90;;;;;;5014938;28;20258;-60
2023/12/02 06:09:45;;;;;;;9.63;4.80;;;-1.40;99.90;;;;;;5014813;28;20210;-58
2023/12/02 06:12:11;;;;;;;16.40;5.33;;;-1.40;99.90;;;;;;5013840;28;20651;-56
2023/12/02 06:14:37;;;;;;;9.50;5.30;;;-1.40;99.90;;;;;;5014553;28;20186;-56
2023/12/02 06:17:03;;;;;;;15.87;6.67;;;-1.40;99.90;;;;;;5023487;28;20605;-59
2023/12/02 06:19:28;;;;;;;8.83;3.90;;;-1.40;99.90;;;;;;5018274;28;20190;-59
2023/12/02 06:21:54;;;;;;;7.03;4.83;;;-1.40;99.90;;;;;;5030243;28;20767;-59
2023/12/02 06:24:19;;;;;;;12.27;4.60;;;-1.40;99.90;;;;;;5025122;28;20187;-59
2023/12/02 06:26:45;;;;;;;14.97;6.57;;;-1.40;99.90;;;;;;5014275;28;20206;-59
2023/12/02 06:29:11;;;;;;;11.63;5.07;;;-1.30;99.90;;;;;;5014811;28;20183;-59
2023/12/02 06:31:37;;;;;;;16.73;5.90;;;-1.40;99.90;;;;;;5027442;28;20261;-56
2023/12/02 06:34:04;;;;;;;9.90;5.07;;;-1.50;99.90;;;;;;5014022;28;20536;-56
2023/12/02 06:36:30;;;;;;;11.10;5.70;;;-1.50;99.90;;;;;;5014145;28;20182;-59
2023/12/02 06:38:55;;;;;;;12.13;6.70;;;-1.50;99.90;;;;;;5014515;28;20418;-59
2023/12/02 06:41:21;;;;;;;11.90;6.90;;;-1.60;99.90;;;;;;5013672;28;20517;-59
2023/12/02 06:43:46;;;;;;;12.63;6.63;;;-1.60;99.90;;;;;;5014463;28;20198;-59
2023/12/02 06:46:23;;;;;;;15.50;7.83;;;-1.60;99.90;;;;;;5015629;28;20203;-59
2023/12/02 06:48:49;;;;;;;13.03;6.37;;;-1.70;99.90;;;;;;5021671;28;20607;-59
2023/12/02 06:51:15;;;;;;;17.83;7.20;;;-1.70;99.90;;;;;;5027514;28;20421;-59
2023/12/02 06:53:40;;;;;;;12.97;6.07;;;-1.70;99.90;;;;;;5014204;28;20460;-59
2023/12/02 06:56:19;;;;;;;10.17;5.80;;;-1.70;99.90;;;;;;5027656;28;20457;-59
2023/12/02 06:58:45;;;;;;;12.33;6.17;;;-1.70;99.90;;;;;;5013498;28;20183;-59
2023/12/02 07:01:22;;;;;;;11.00;5.77;;;-1.80;99.90;;;;;;5013698;28;20420;-59
2023/12/02 07:03:47;;;;;;;13.90;6.60;;;-1.80;99.90;;;;;;5013986;28;20179;-59
2023/12/02 07:06:12;;;;;;;14.27;7.00;;;-1.80;99.90;;;;;;5013701;28;20470;-59
2023/12/02 07:08:38;;;;;;;14.77;8.03;;;-1.80;99.90;;;;;;5026369;28;20777;-59
2023/12/02 07:11:04;;;;;;;17.63;8.07;;;-1.70;99.90;;;;;;5014579;28;20221;-59
2023/12/02 07:13:29;;;;;;;10.93;5.87;;;-1.80;99.90;;;;;;5026882;28;20710;-59
2023/12/02 07:15:55;;;;;;;18.50;8.40;;;-1.80;99.90;;;;;;5014023;28;20234;-59
2023/12/02 07:18:20;;;;;;;17.70;8.27;;;-1.80;99.90;;;;;;5014105;28;20207;-59
2023/12/02 07:20:46;;;;;;;19.13;8.33;;;-1.80;99.90;;;;;;5012885;28;20198;-59
2023/12/02 07:23:11;;;;;;;22.93;7.67;;;-1.80;99.90;;;;;;5026267;28;20186;-60
2023/12/02 07:25:37;;;;;;;13.17;6.53;;;-1.70;99.90;;;;;;5022364;28;20218;-60
2023/12/02 07:28:02;;;;;;;16.47;6.60;;;-1.70;99.90;;;;;;5011681;28;20179;-60
2023/12/02 07:30:28;;;;;;;12.53;7.00;;;-1.70;99.90;;;;;;5026610;28;20202;-56
2023/12/02 07:32:53;;;;;;;15.40;7.17;;;-1.70;99.90;;;;;;5012649;28;20212;-56
2023/12/02 07:35:19;;;;;;;19.10;8.70;;;-1.70;99.90;;;;;;5012635;28;20187;-56
2023/12/02 07:37:47;;;;;;;18.70;8.47;;;-1.70;99.90;;;;;;5012852;28;20199;-56
2023/12/02 07:40:13;;;;;;;15.23;7.13;;;-1.70;99.90;;;;;;5012194;28;20194;-59
2023/12/02 07:42:38;;;;;;;15.20;7.00;;;-1.60;99.90;;;;;;5025765;28;20437;-59
2023/12/02 07:45:05;;;;;;;11.27;6.20;;;-1.70;99.90;;;;;;5013087;28;20221;-60
2023/12/02 07:47:30;;;;;;;15.40;6.83;;;-1.70;99.90;;;;;;5015040;28;20201;-60
2023/12/02 07:49:57;;;;;;;14.00;7.27;;;-1.70;99.90;;;;;;5017681;28;20441;-59
2023/12/02 07:52:22;;;;;;;14.23;6.17;;;-1.70;99.90;;;;;;5032848;28;20425;-59
2023/12/02 07:54:48;;;;;;;16.00;7.00;;;-1.70;99.90;;;;;;5026731;28;20183;-60
2023/12/02 07:57:14;;;;;;;11.37;5.87;;;-1.70;99.90;;;;;;5012504;28;20191;-59
2023/12/02 07:59:39;;;;;;;13.53;6.30;;;-1.80;99.90;;;;;;5019291;28;20639;-60
2023/12/02 08:02:05;;;;;;;12.70;4.93;;;-1.80;99.90;;;;;;5019713;28;20255;-60
2023/12/02 08:04:31;;;;;;;14.53;6.20;;;-1.90;99.90;;;;;;5021131;28;20198;-59
2023/12/02 08:06:56;;;;;;;11.03;5.10;;;-2.00;99.90;;;;;;5012336;28;20470;-59
2023/12/02 08:09:22;;;;;;;7.77;4.60;;;-2.00;99.90;;;;;;5012442;28;20275;-60
2023/12/02 08:11:48;;;;;;;11.60;5.47;;;-2.10;99.90;;;;;;5012062;28;20191;-56
2023/12/02 08:14:14;;;;;;;11.70;6.00;;;-2.10;99.90;;;;;;5012182;28;20202;-56
2023/12/02 08:16:40;;;;;;;11.87;5.90;;;-2.10;99.90;;;;;;5012588;28;20969;-60
2023/12/02 08:19:05;;;;;;;12.43;6.70;;;-2.20;99.90;;;;;;5018693;28;20651;-59
2023/12/02 08:21:31;;;;;;;13.50;6.50;;;-2.20;99.90;;;;;;5019611;28;20233;-59
2023/12/02 08:23:56;;;;;;;16.50;6.33;;;-2.10;99.90;;;;;;5018576;28;20228;-59
2023/12/02 08:26:22;;;;;;;14.47;7.20;;;-2.10;99.90;;;;;;5019269;28;20682;-60
2023/12/02 08:28:48;;;;;;;18.50;8.43;;;-2.10;99.90;;;;;;5021132;28;20194;-60
2023/12/02 08:31:15;;;;;;;18.87;7.17;;;-2.10;99.90;;;;;;5012146;28;20183;-60
2023/12/02 08:33:40;;;;;;;18.10;8.73;;;-2.10;99.90;;;;;;5025093;28;20462;-60
2023/12/02 08:36:07;;;;;;;17.30;9.00;;;-2.10;99.90;;;;;;5020601;28;20457;-60
2023/12/02 08:38:32;;;;;;;14.13;8.07;;;-2.10;99.90;;;;;;5017989;28;20273;-60
2023/12/02 08:40:58;;;;;;;19.20;9.30;;;-2.20;99.90;;;;;;5019348;28;20895;-60
2023/12/02 08:43:23;;;;;;;19.27;6.90;;;-2.20;99.90;;;;;;5025123;28;20220;-60
2023/12/02 08:45:49;;;;;;;17.20;8.63;;;-2.20;99.90;;;;;;5024330;28;20589;-56
2023/12/02 08:48:14;;;;;;;18.70;8.77;;;-2.20;99.90;;;;;;5016791;28;20369;-56
2023/12/02 08:50:40;;;;;;;14.73;7.40;;;-2.20;99.90;;;;;;5011296;28;20561;-56
2023/12/02 08:53:05;;;;;;;18.90;8.07;;;-2.10;99.90;;;;;;5011500;28;20190;-56
2023/12/02 08:55:31;;;;;;;12.33;7.20;;;-2.10;99.90;;;;;;5012226;28;20270;-60
2023/12/02 08:57:56;;;;;;;12.60;7.40;;;-2.10;99.90;;;;;;5016064;28;20218;-60
2023/12/02 09:00:21;;;;;;;27.03;8.63;;;-2.20;99.90;;;;;;5024646;28;20526;-60
2023/12/02 09:02:47;;;;;;;15.10;7.73;;;-2.20;99.90;;;;;;5025950;28;20219;-60
2023/12/02 09:05:13;;;;;;;17.57;7.80;;;-2.30;99.90;;;;;;5024186;28;20178;-60
2023/12/02 09:07:38;;;;;;;13.07;7.40;;;-2.20;99.90;;;;;;5012526;28;20171;-60
2023/12/02 09:10:04;;;;;;;11.13;7.30;;;-2.20;99.90;;;;;;5012494;28;20259;-60
2023/12/02 09:12:30;;;;;;;17.57;8.27;;;-2.20;99.90;;;;;;5017371;28;20270;-60
2023/12/02 09:15:08;;;;;;;20.53;8.40;;;-2.20;99.90;;;;;;5024182;28;20182;-59
2023/12/02 09:18:08;;;;;;;16.40;7.60;;;-2.20;99.90;;;;;;5027883;28;20679;-59
2023/12/02 09:20:55;;;;;;;16.57;7.17;;;-2.20;99.90;;;;;;5015747;28;20559;-59
2023/12/02 09:23:21;;;;;;;13.67;7.27;;;-2.20;99.90;;;;;;5015034;28;20413;-59
2023/12/02 09:25:48;;;;;;;16.90;7.43;;;-2.20;99.90;;;;;;5022346;28;20468;-60
2023/12/02 09:28:15;;;;;;;14.20;6.30;;;-2.20;99.90;;;;;;5027626;28;20778;-60
2023/12/02 09:30:51;;;;;;;19.07;8.27;;;-2.10;99.90;;;;;;5023794;28;20813;-60
2023/12/02 09:33:17;;;;;;;15.27;6.33;;;-2.20;99.90;;;;;;5022084;28;20423;-60
2023/12/02 09:35:43;;;;;;;13.40;7.13;;;-2.20;99.90;;;;;;5026800;28;20426;-60
2023/12/02 09:38:08;;;;;;;16.47;7.10;;;-2.20;99.90;;;;;;5028918;28;20459;-60
2023/12/02 09:40:40;;;;;;;15.90;8.10;;;-2.10;99.90;;;;;;5015200;28;20562;-60
2023/12/02 09:43:05;;;;;;;16.67;7.80;;;-2.10;99.90;;;;;;5015781;28;20175;-60
2023/12/02 09:45:43;;;;;;;14.47;7.90;;;-2.00;99.90;;;;;;5024929;28;20982;-56
2023/12/02 09:48:22;;;;;;;15.47;7.73;;;-2.00;99.90;;;;;;5016235;28;20182;-56
2023/12/02 09:51:19;;;;;;;16.60;7.50;;;-1.90;99.90;;;;;;5015369;28;20476;-60
2023/12/02 09:54:15;;;;;;;13.27;6.40;;;-1.90;99.90;;;;;;5006651;28;20457;-60
2023/12/02 09:56:47;;;;;;;13.47;7.23;;;-2.00;99.90;;;;;;5014651;28;20436;-56
2023/12/02 09:59:28;;;;;;;14.40;7.83;;;-2.10;99.90;;;;;;5014036;28;20445;-56
2023/12/02 10:02:17;;;;;;;17.17;7.60;;;-2.10;99.90;;;;;;5026222;28;20455;-59
2023/12/02 10:04:49;;;;;;;15.30;8.37;;;-2.00;99.90;;;;;;5015799;28;20899;-60
2023/12/02 10:07:34;;;;;;;17.67;7.17;;;-2.00;99.90;;;;;;5015707;28;20474;-60
2023/12/02 10:10:13;;;;;;;13.80;7.50;;;-2.10;99.90;;;;;;5025863;28;20472;-60
2023/12/02 10:12:50;;;;;;;15.67;7.60;;;-2.10;99.90;;;;;;5015777;28;20414;-60
2023/12/02 10:15:19;;;;;;;14.83;7.33;;;-2.10;99.90;;;;;;5013281;28;20460;-60
2023/12/02 10:17:58;;;;;;;11.70;6.30;;;-2.10;99.90;;;;;;5012241;28;20422;-60
2023/12/02 10:20:28;;;;;;;14.50;7.97;;;-2.10;99.90;;;;;;5017102;28;20935;-59
2023/12/02 10:23:14;;;;;;;12.10;6.40;;;;;;;;;;5014774;28;20987;-60
2023/12/02 10:25:53;;;;;;;14.10;6.93;;;-2.20;99.90;;;;;;4952310;28;21081;-58
2023/12/02 10:28:46;;;;;;;13.03;6.03;;;-2.20;99.90;;;;;;5015116;28;20454;-59
2023/12/02 10:31:24;;;;;;;16.20;7.30;;;-2.40;99.90;;;;;;5034419;28;20421;-59
2023/12/02 10:33:59;;;;;;;14.10;7.33;;;-2.40;99.90;;;;;;5027527;28;20424;-59
2023/12/02 10:36:28;;;;;;;15.97;6.77;;;-2.40;99.90;;;;;;5028212;28;20448;-59
2023/12/02 10:39:10;;;;;;;22.63;9.20;;;-1.40;99.90;;;;;;5014698;28;20474;-59
2023/12/02 10:41:44;;;;;;;14.90;7.00;;;-2.40;99.90;;;;;;5014955;28;20516;-59
2023/12/02 10:44:10;;;;;;;14.93;7.50;;;-2.40;99.90;;;;;;5015176;28;20902;-59
2023/12/02 10:46:38;;;;;;;16.10;7.10;;;-2.30;99.90;;;;;;5033849;28;20465;-59
2023/12/02 10:49:05;;;;;;;20.10;8.20;;;-2.30;99.90;;;;;;5022332;28;20440;-59
2023/12/02 10:51:37;;;;;;;13.47;6.37;;;-2.30;99.90;;;;;;5027126;28;20473;-55
2023/12/02 10:54:05;;;;;;;14.93;7.63;;;-2.30;99.90;;;;;;5012786;28;20556;-55
2023/12/02 10:56:35;;;;;;;16.70;7.83;;;-2.30;99.90;;;;;;5013149;28;20450;-55
2023/12/02 10:59:01;;;;;;;15.33;6.90;;;-2.20;99.90;;;;;;5012964;28;20798;-55
2023/12/02 11:01:53;;;;;;;13.23;6.67;;;-2.20;99.90;;;;;;5014207;28;20504;-59
2023/12/02 11:04:31;;;;;;;14.60;6.90;;;-2.20;99.90;;;;;;5032605;28;20425;-59
2023/12/02 11:07:07;;;;;;;15.87;7.30;;;-2.20;99.90;;;;;;5019317;28;20472;-55
2023/12/02 11:09:57;;;;;;;12.37;6.60;;;-2.10;99.90;;;;;;5001104;28;20429;-55
2023/12/02 11:12:47;;;;;;;19.57;6.13;;;-2.20;99.90;;;;;;5017612;28;20440;-55
2023/12/02 11:15:14;;;;;;;14.63;7.13;;;-2.20;99.90;;;;;;5013612;28;20445;-59
2023/12/02 11:18:02;;;;;;;12.47;6.67;;;-2.20;99.90;;;;;;5014654;28;20512;-59
2023/12/02 11:20:42;;;;;;;15.10;6.80;;;-2.20;99.90;;;;;;5014431;28;20513;-59
2023/12/02 11:23:40;;;;;;;11.90;5.70;;;-2.10;99.90;;;;;;5014247;28;20480;-59
2023/12/02 11:26:19;;;;;;;11.87;7.10;;;-2.20;99.90;;;;;;5014342;28;20465;-60
2023/12/02 11:29:00;;;;;;;14.83;6.87;;;-2.20;99.90;;;;;;5014483;28;20422;-60
2023/12/02 11:31:50;;;;;;;17.00;7.67;;;-2.30;99.90;;;;;;5014483;28;20406;-60
2023/12/02 11:34:53;;;;;;;15.77;6.60;;;-2.30;99.90;;;;;;5034233;28;20421;-60
2023/12/02 11:37:27;;;;;;;9.37;5.80;;;-2.30;99.90;;;;;;4994879;28;20415;-60
2023/12/02 11:40:13;;;;;;;10.10;5.20;;;-2.30;99.90;;;;;;4998131;28;20445;-60
2023/12/02 11:42:51;;;;;;;9.97;5.50;;;-2.40;99.90;;;;;;5013984;28;20758;-58
2023/12/02 11:45:23;;;;;;;15.53;6.40;;;-2.40;99.90;;;;;;5014095;28;20406;-58
2023/12/02 11:48:03;;;;;;;13.47;7.50;;;-2.40;99.90;;;;;;5014024;28;20401;-58
2023/12/02 11:50:41;;;;;;;13.00;7.70;;;-2.40;99.90;;;;;;5014167;28;20410;-58
2023/12/02 11:53:35;;;;;;;9.87;5.77;;;-2.30;99.90;;;;;;5027373;28;20476;-59
2023/12/02 11:56:09;;;;;;;12.67;5.87;;;-2.40;99.90;;;;;;5013077;28;20428;-56
2023/12/02 11:58:53;;;;;;;13.87;7.03;;;-2.50;99.90;;;;;;5012415;28;20426;-56
2023/12/02 12:01:37;;;;;;;10.33;5.57;;;-2.50;99.90;;;;;;5012319;28;20465;-56
2023/12/02 12:04:14;;;;;;;12.63;6.00;;;-2.50;99.90;;;;;;5012616;28;20894;-56
2023/12/02 12:06:58;;;;;;;14.43;6.53;;;-2.50;99.90;;;;;;5013277;28;20469;-60
2023/12/02 12:09:42;;;;;;;11.80;6.63;;;-2.40;99.90;;;;;;5032968;28;20436;-60
2023/12/02 12:12:10;;;;;;;14.03;6.20;;;-2.40;99.90;;;;;;5016611;28;20795;-56
2023/12/02 12:14:37;;;;;;;16.07;7.17;;;-2.40;99.90;;;;;;5011555;28;20480;-56
2023/12/02 12:17:03;;;;;;;13.73;6.27;;;-2.50;99.90;;;;;;5013197;28;20929;-60
2023/12/02 12:19:28;;;;;;;10.47;5.50;;;-2.40;99.90;;;;;;5022958;28;20421;-60
2023/12/02 12:21:55;;;;;;;14.87;6.23;;;-2.40;99.90;;;;;;5028825;28;20194;-60
2023/12/02 12:24:21;;;;;;;14.53;6.80;;;-2.40;99.90;;;;;;5033402;28;20190;-60
2023/12/02 12:26:46;;;;;;;11.87;4.97;;;-2.40;99.90;;;;;;5030780;28;20773;-60
2023/12/02 12:29:12;;;;;;;10.20;5.90;;;-2.50;99.90;;;;;;5013474;28;20186;-60
2023/12/02 12:31:38;;;;;;;11.90;5.60;;;-2.50;99.90;;;;;;5026477;28;20190;-60
2023/12/02 12:34:11;;;;;;;8.40;4.87;;;-2.40;99.90;;;;;;5022444;28;20178;-60
2023/12/02 12:36:38;;;;;;;12.63;6.23;;;-2.50;99.90;;;;;;5033146;28;20503;-60
2023/12/02 12:39:06;;;;;;;13.00;6.27;;;-2.60;99.90;;;;;;5033664;28;20421;-60
2023/12/02 12:41:31;;;;;;;14.57;5.43;;;-2.60;99.90;;;;;;5014984;28;20927;-56
2023/12/02 12:43:57;;;;;;;24.97;6.20;;;-2.50;99.90;;;;;;5012220;28;20426;-56